ABB Current Ratio 2006-2018 | ABB

Current and historical current ratio for ABB (ABB) from 2006 to 2018. Current ratio can be defined as a liquidity ratio that measures a company's ability to pay short-term obligations. ABB current ratio for the three months ending June 30, 2018 was 1.15.
ABB Current Ratio Historical Data
Date Current Assets Current Liabilities Current Ratio
2018-06-30 $22.34B $19.39B 1.15
2018-03-31 $22.31B $19.37B 1.15
2017-12-31 $22.14B $16.47B 1.34
2017-09-30 $21.60B $15.81B 1.37
2017-06-30 $22.09B $15.21B 1.45
2017-03-31 $22.21B $15.15B 1.47
2016-12-31 $21.05B $15.15B 1.39
2016-09-30 $22.90B $16.18B 1.42
2016-06-30 $23.47B $18.06B 1.30
2016-03-31 $23.08B $15.77B 1.46
2015-12-31 $22.76B $15.84B 1.44
2015-09-30 $23.07B $15.03B 1.54
2015-06-30 $23.60B $16.05B 1.47
2015-03-31 $24.00B $14.66B 1.64
2014-12-31 $24.99B $15.58B 1.60
2014-09-30 $25.81B $16.38B 1.58
2014-06-30 $26.38B $16.89B 1.56
2014-03-31 $27.51B $16.99B 1.62
2013-12-31 $26.43B $16.68B 1.59
2013-09-30 $25.92B $16.73B 1.55
2013-06-30 $25.07B $16.36B 1.53
2013-03-31 $26.95B $17.49B 1.54
2012-12-31 $28.00B $18.97B 1.48
2012-09-30 $25.61B $17.78B 1.44
2012-06-30 $24.35B $17.66B 1.38
2012-03-31 $26.76B $16.54B 1.62
2011-12-31 $23.79B $16.56B 1.44
2011-09-30 $24.67B $18.36B 1.34
2011-06-30 $24.54B $17.81B 1.38
2011-03-31 $23.08B $17.19B 1.34
2010-12-31 $25.35B $16.74B 1.51
2010-09-30 $24.33B $15.07B 1.62
2010-06-30 $23.52B $13.84B 1.70
2010-03-31 $25.02B $14.14B 1.77
2009-12-31 $25.23B $14.58B 1.73
2009-09-30 $24.95B $14.78B 1.69
2009-06-30 $24.75B $15.16B 1.63
2009-03-31 $23.32B $14.82B 1.57
2008-12-31 $24.24B $15.90B 1.52
2008-09-30 $24.07B $15.38B 1.57
2008-06-30 $25.94B $15.80B 1.64
2008-03-31 $25.23B $15.70B 1.61
2007-12-31 $23.15B $14.48B 1.60
2007-09-30 $21.77B $14.56B 1.50
2007-06-30 $19.72B $13.47B 1.46
2007-03-31 $18.64B $12.98B 1.44
2006-12-31 $17.56B $12.49B 1.41
2006-09-30 $16.06B $11.62B 1.38
2006-06-30 $15.33B $11.40B 1.35
2006-03-31 $15.00B $11.89B 1.26
2005-12-31 $14.17B $11.72B 1.21
2005-09-30 $14.96B $12.37B 1.21
2005-06-30 $14.84B $12.25B 1.21
2005-03-31 $14.60B $12.08B 1.21
Sector Industry Market Cap Revenue
Industrial Products Electrical Machinery $45.702B $34.312B
ABB Ltd, headquartered in Zurich, Switzerland, is engaged in providing power and automation technologies for its utility and industrial customers. The Company provides a range of products, systems, solutions and services that are designed to improve power grid reliability, increase industrial productivity and enhance energy efficiency. ABB is focused on power transmission, distribution and power-plant automation and serves electric, gas and water utilities, as well as industrial and commercial customers. Its Power Products division manufactures three categories of products: High-voltage Products, Medium-voltage Products and Transformers. The key technologies include high- and medium-voltage switchgear, circuit breakers for various current and voltage levels, power and distribution transformers, as well as sensors and products to automate and control electrical and other utility networks. ABB Ltd is structured into four regions: Europe, the Americas, Asia and the Middle East and Africa (MEA).
Stock Name Country Market Cap PE Ratio
Emerson Electric (EMR) United States $46.506B 24.26
Eaton (ETN) Ireland $34.582B 15.87
A O Smith (AOS) United States $8.124B 19.84
Enersys (ENS) United States $3.485B 17.57
Regal Beloit (RBC) United States $3.443B 14.54
Rexnord (RXN) United States $2.868B 18.07
II-VI (IIVI) United States $2.598B 26.64
Franklin Electric (FELE) United States $2.073B 21.65
SPX FLOW (FLOW) United States $1.849B 22.63
ESCO Technologies (ESE) United States $1.637B 27.12
AZZ (AZZ) United States $1.210B 39.68
Plug Power (PLUG) United States $0.415B 0.00
Powell Industries (POWL) United States $0.369B 0.00
Energous (WATT) United States $0.249B 0.00
UQM TECHNOLOGIES INC (UQM) United States $0.073B 0.00
Capstone Turbine (CPST) United States $0.059B 0.00
CUI Global (CUI) United States $0.056B 0.00
Pioneer Power Solutions (PPSI) United States $0.041B 9.50
LGL (LGL) United States $0.034B 48.86
Ideal Power (IPWR) United States $0.008B 0.00
American Electric Technologies (AETI) United States $0.006B 0.00